PrinceSS Dina — 9LU2153 — position and weather

sailwx.info

Track history (hours):
 
Tides and Currents Weather Stations Pressure Air Temp Water Temp Dewpoint Dewpoint Depression Visibility Wind Speed Wind Dir Waves Ship Positions

PrinceSS Dina

Last reported at 2017-Nov-24 19:28 UTC. Time now 2017-Nov-25 02:07 UTC.
Position N 36°32' E 027°39'.

Length 106 m; draft 6.6 m.

Type: Cargo ship. MMSI: 667001350.

Date/timePositionNaut miles runAvg speedWind from/ knotsBaromVisibWave heightAir tempDewpointWater temp
2017-Nov-24 19:28N 36°32' E 027°39'4 8.7
2017-Nov-24 19:00N 36°35' E 027°36'2 1.5
2017-Nov-24 17:48N 36°36' E 027°34'3 6.4
2017-Nov-24 17:23N 36°36' E 027°31'410.1
2017-Nov-24 17:00N 36°37' E 027°26'19 8.4
2017-Nov-24 14:43N 36°55' E 027°20'211.1
2017-Nov-24 14:30N 36°56' E 027°17'2710.2
2017-Nov-24 11:49N 37°17' E 026°54'310.4
2017-Nov-24 11:30N 37°20' E 026°52'510.4
2017-Nov-24 11:00N 37°24' E 026°49'510.3
2017-Nov-24 10:30N 37°29' E 026°46'510.1
2017-Nov-24 10:00N 37°33' E 026°42'610.2
2017-Nov-24 09:26N 37°37' E 026°37'610.6
2017-Nov-24 08:54N 37°41' E 026°32'510.5
2017-Nov-24 08:25N 37°44' E 026°27'4 9.8
2017-Nov-24 08:00N 37°46' E 026°23'5 9.7
2017-Nov-24 07:28N 37°49' E 026°17'5 9.6
2017-Nov-24 06:58N 37°52' E 026°13'610.1
2017-Nov-24 06:23N 37°56' E 026°07'28 9.7
2017-Nov-24 03:32N 38°19' E 025°46'0 9.9
2017-Nov-24 03:30N 38°19' E 025°46'510.3
2017-Nov-24 02:59N 38°24' E 025°46'  
2017-Nov-19 20:25N 44°31' E 037°24'510.6
2017-Nov-19 20:00N 44°31' E 037°31'510.6
2017-Nov-19 19:30N 44°32' E 037°38'510.3
2017-Nov-19 19:00N 44°34' E 037°44'4 7.1
2017-Nov-19 18:30N 44°36' E 037°48'4 7.7
2017-Nov-19 18:00N 44°39' E 037°52'1 1.8
2017-Nov-19 17:25N 44°40' E 037°53'0 0.1
2017-Nov-19 17:00N 44°40' E 037°53'0 0.1
2017-Nov-19 16:29N 44°40' E 037°53'0 0.1
2017-Nov-19 15:59N 44°40' E 037°53'0 0.1
2017-Nov-19 15:28N 44°40' E 037°53'0 0.0
2017-Nov-19 14:59N 44°40' E 037°53'0 0.1
2017-Nov-19 14:28N 44°40' E 037°53'0 0.0
2017-Nov-19 13:58N 44°40' E 037°53'0 0.0
2017-Nov-19 13:26N 44°40' E 037°53'0 0.0
2017-Nov-19 12:59N 44°40' E 037°53'0 0.0
2017-Nov-19 12:28N 44°40' E 037°53'0 0.0
2017-Nov-19 11:58N 44°40' E 037°53'0 0.0
2017-Nov-19 11:26N 44°40' E 037°53'0 0.0
2017-Nov-19 10:58N 44°40' E 037°53'0 0.0
2017-Nov-19 10:30N 44°40' E 037°53'0 0.0
2017-Nov-19 09:58N 44°40' E 037°53'0 0.0
2017-Nov-19 09:25N 44°40' E 037°53'0 0.0
2017-Nov-19 09:00N 44°40' E 037°53'0 0.0
2017-Nov-19 08:29N 44°40' E 037°53'0 0.0
2017-Nov-19 07:58N 44°40' E 037°53'0 0.1
2017-Nov-19 07:28N 44°40' E 037°53'0 0.0
2017-Nov-19 06:59N 44°40' E 037°53'0 0.0
2017-Nov-19 06:30N 44°40' E 037°53'0 0.0
2017-Nov-19 05:57N 44°40' E 037°53'0 0.0
2017-Nov-19 05:30N 44°40' E 037°53'0 0.1
2017-Nov-19 04:34N 44°40' E 037°53'0 0.1
2017-Nov-19 04:28N 44°40' E 037°53'0 0.1
2017-Nov-19 03:54N 44°40' E 037°53'0 0.1
2017-Nov-19 03:25N 44°40' E 037°53'0 0.0
2017-Nov-19 02:53N 44°40' E 037°53'0 0.0
2017-Nov-19 02:27N 44°40' E 037°53'0 0.0
2017-Nov-19 01:55N 44°40' E 037°53'0 0.0
2017-Nov-19 01:29N 44°40' E 037°53'0 0.0
2017-Nov-19 00:58N 44°40' E 037°53'0 0.0
2017-Nov-19 00:29N 44°40' E 037°53'0 0.0
2017-Nov-18 23:54N 44°40' E 037°53'0 0.0
2017-Nov-18 23:30N 44°40' E 037°53'0 0.0
2017-Nov-18 23:00N 44°40' E 037°53'0 0.0
2017-Nov-18 22:29N 44°40' E 037°53'0 0.0
2017-Nov-18 22:00N 44°40' E 037°53'0 0.1
2017-Nov-18 21:29N 44°40' E 037°53'0 0.0
2017-Nov-18 20:59N 44°40' E 037°53'0 0.0
2017-Nov-18 20:28N 44°40' E 037°53'0 0.0
2017-Nov-18 20:00N 44°40' E 037°53'0 0.0
2017-Nov-18 19:30N 44°40' E 037°53'0 0.1
2017-Nov-18 18:59N 44°40' E 037°53'0 0.0
2017-Nov-18 18:29N 44°40' E 037°53'0 0.0
2017-Nov-18 17:58N 44°40' E 037°53'0 0.1
2017-Nov-18 17:28N 44°40' E 037°53'0 0.1
2017-Nov-18 16:57N 44°40' E 037°53'0 0.1
2017-Nov-18 16:30N 44°40' E 037°53'0 0.0
2017-Nov-18 16:00N 44°40' E 037°53'0 0.1
2017-Nov-18 15:30N 44°40' E 037°53'0 0.1
2017-Nov-18 14:53N 44°40' E 037°53'0 0.1
2017-Nov-18 14:28N 44°40' E 037°54'0 0.0
2017-Nov-18 13:58N 44°40' E 037°54'0 0.1
2017-Nov-18 13:29N 44°40' E 037°53'0 0.0
2017-Nov-18 12:57N 44°40' E 037°53'0 0.0
2017-Nov-18 12:26N 44°40' E 037°53'0 0.0
2017-Nov-18 11:53N 44°40' E 037°53'0 0.0
2017-Nov-18 11:29N 44°40' E 037°53'0 0.0
2017-Nov-18 10:59N 44°40' E 037°53'0 0.1
2017-Nov-18 10:30N 44°40' E 037°53'0 0.1
2017-Nov-18 09:53N 44°40' E 037°53'0 0.2
2017-Nov-18 09:25N 44°39' E 037°53'0 0.0
2017-Nov-18 09:01N 44°40' E 037°53'0 0.0
2017-Nov-18 08:30N 44°39' E 037°53'0 0.0
2017-Nov-18 08:00N 44°39' E 037°54'0 0.0
2017-Nov-18 07:24N 44°39' E 037°53'0 0.0
2017-Nov-18 06:58N 44°39' E 037°53'0 0.0
2017-Nov-18 06:29N 44°39' E 037°53'0 0.0
2017-Nov-18 06:00N 44°39' E 037°53'0 0.1
2017-Nov-18 05:30N 44°39' E 037°53'0 0.0
2017-Nov-18 04:59N 44°39' E 037°53'0 0.1
2017-Nov-18 04:29N 44°39' E 037°53'0 0.0
2017-Nov-18 03:59N 44°39' E 037°53'0 0.0
2017-Nov-18 03:30N 44°39' E 037°53'0 0.0
2017-Nov-18 02:59N 44°39' E 037°53'0 0.0
2017-Nov-18 02:28N 44°39' E 037°53'0 0.0
2017-Nov-18 02:00N 44°39' E 037°54'0 0.0
2017-Nov-18 01:23N 44°40' E 037°54'0 0.0
2017-Nov-18 01:00N 44°40' E 037°53'0 0.0
2017-Nov-18 00:28N 44°40' E 037°53'0 0.0
2017-Nov-17 23:59N 44°39' E 037°53'0 0.0
2017-Nov-17 23:28N 44°40' E 037°53'0 0.0
2017-Nov-17 22:58N 44°39' E 037°53'0 0.0
2017-Nov-17 22:30N 44°40' E 037°53'0 0.0
2017-Nov-17 21:54N 44°40' E 037°54'0 0.0
2017-Nov-17 21:29N 44°40' E 037°54'0 0.0
2017-Nov-17 21:00N 44°40' E 037°53'0 0.0
2017-Nov-17 20:29N 44°39' E 037°53'0 0.1
2017-Nov-17 19:56N 44°39' E 037°53'0 0.1
2017-Nov-17 19:29N 44°39' E 037°53'0 0.1
2017-Nov-17 19:00N 44°39' E 037°53'0 0.0
2017-Nov-17 18:29N 44°39' E 037°53'0 0.0
2017-Nov-17 17:54N 44°39' E 037°53'0 0.0
2017-Nov-17 17:28N 44°39' E 037°53'0 0.0
2017-Nov-17 17:00N 44°39' E 037°53'0 0.0
2017-Nov-17 16:28N 44°39' E 037°53'0 0.5
2017-Nov-17 16:00N 44°39' E 037°53'2 3.5
2017-Nov-17 15:30N 44°38' E 037°52'6 2.7
2017-Nov-17 13:13N 44°43' E 037°48'0 0.0
2017-Nov-17 13:00N 44°43' E 037°48'0 0.0
2017-Nov-17 12:28N 44°43' E 037°48'0 0.0
2017-Nov-17 11:59N 44°43' E 037°48'0 0.0
2017-Nov-17 11:29N 44°43' E 037°48'0 0.0
2017-Nov-17 10:56N 44°43' E 037°48'0 0.0
2017-Nov-17 10:29N 44°43' E 037°48'0 0.0
2017-Nov-17 10:00N 44°43' E 037°48'0 0.0
2017-Nov-17 09:24N 44°43' E 037°48'0 0.0
2017-Nov-17 08:58N 44°43' E 037°48'0 0.0
2017-Nov-17 08:28N 44°43' E 037°48'0 0.0
2017-Nov-17 08:00N 44°43' E 037°48'0 0.0
2017-Nov-17 07:30N 44°43' E 037°48'0 0.0
2017-Nov-17 07:00N 44°43' E 037°48'0 0.0
2017-Nov-17 06:27N 44°43' E 037°48'0 0.0
2017-Nov-16 21:56N 44°43' E 037°48'0 0.0
2017-Nov-16 21:29N 44°43' E 037°48'0 0.0
2017-Nov-16 21:00N 44°43' E 037°48'0 0.0
2017-Nov-16 20:28N 44°43' E 037°48'0 0.0
2017-Nov-16 19:46N 44°43' E 037°48'0 0.0
2017-Nov-16 19:30N 44°43' E 037°48'0 0.0
2017-Nov-16 18:58N 44°43' E 037°48'0 0.0
2017-Nov-16 18:28N 44°43' E 037°48'0 0.0
2017-Nov-16 18:00N 44°43' E 037°48'0 0.0
2017-Nov-16 17:28N 44°43' E 037°48'0 0.0
2017-Nov-16 17:00N 44°43' E 037°48'0 0.0
2017-Nov-16 16:29N 44°43' E 037°48'0 0.0
2017-Nov-16 15:59N 44°43' E 037°48'0 0.0
2017-Nov-16 15:29N 44°43' E 037°48'0 0.0
2017-Nov-16 14:58N 44°43' E 037°48'0 0.0
2017-Nov-16 14:29N 44°43' E 037°48'0 0.0
2017-Nov-16 13:54N 44°43' E 037°48'0 0.0
2017-Nov-16 13:29N 44°43' E 037°48'0 0.0
2017-Nov-16 03:44N 44°43' E 037°48'0 0.0
2017-Nov-16 03:29N 44°43' E 037°48'0 0.0
2017-Nov-16 02:58N 44°43' E 037°48'0 0.0
2017-Nov-16 02:29N 44°43' E 037°48'0 0.0
2017-Nov-16 01:58N 44°43' E 037°48'0 0.0
2017-Nov-16 01:29N 44°43' E 037°48'0 0.0
2017-Nov-16 00:59N 44°43' E 037°48'0 0.0
2017-Nov-16 00:30N 44°43' E 037°48'0 0.0
2017-Nov-15 23:58N 44°43' E 037°48'0 0.0
2017-Nov-15 23:24N 44°43' E 037°48'0 0.0
2017-Nov-15 23:00N 44°43' E 037°48'0 0.0
2017-Nov-15 22:27N 44°43' E 037°48'0 0.0
2017-Nov-15 21:59N 44°43' E 037°48'0 0.0
2017-Nov-15 21:30N 44°43' E 037°48'0 0.0
2017-Nov-15 21:00N 44°43' E 037°48'0 0.0
2017-Nov-15 20:28N 44°43' E 037°48'0 0.0
2017-Nov-15 20:00N 44°43' E 037°48'0 0.0
2017-Nov-15 19:30N 44°43' E 037°48'0 0.0
2017-Nov-15 19:00N 44°43' E 037°48'0 0.0
2017-Nov-15 18:29N 44°43' E 037°48'0 0.0
2017-Nov-15 17:54N 44°43' E 037°48'0 0.0
2017-Nov-15 17:30N 44°43' E 037°48'0 0.0
2017-Nov-15 17:00N 44°43' E 037°48'0 0.0
2017-Nov-15 16:28N 44°43' E 037°48'0 0.0
2017-Nov-15 15:58N 44°43' E 037°48'0 0.0
2017-Nov-15 15:29N 44°43' E 037°48'0 0.0
2017-Nov-15 15:00N 44°43' E 037°48'0 0.0
2017-Nov-15 13:57N 44°43' E 037°48'0 0.0
2017-Nov-15 13:28N 44°43' E 037°48'0 0.0
2017-Nov-15 13:00N 44°43' E 037°48'0 0.0
2017-Nov-15 12:29N 44°43' E 037°48'0 0.0
2017-Nov-15 11:55N 44°43' E 037°48'0 0.0
2017-Nov-15 11:29N 44°43' E 037°48'0 0.0
2017-Nov-15 11:00N 44°43' E 037°48'0 0.0
2017-Nov-15 10:26N 44°43' E 037°48'0 0.0
2017-Nov-15 10:00N 44°43' E 037°48'2 4.8
2017-Nov-15 09:31N 44°41' E 037°50'4 7.7
2017-Nov-15 09:00N 44°38' E 037°52'2 3.5
2017-Nov-15 08:30N 44°36' E 037°51'4 7.4
2017-Nov-15 08:00N 44°33' E 037°49'610.8
2017-Nov-15 07:29N 44°30' E 037°42'510.8
2017-Nov-15 07:00N 44°27' E 037°36'510.0
2017-Nov-15 06:30N 44°24' E 037°30'5 9.8
2017-Nov-15 06:00N 44°22' E 037°24'  
Track history (hours):
 
Tides and Currents Weather Stations Pressure Air Temp Water Temp Dewpoint Dewpoint Depression Visibility Wind Speed Wind Dir Waves Ship Positions

PrinceSS Dina

Last reported at 2017-Nov-24 19:28 UTC. Time now 2017-Nov-25 02:07 UTC.
Position N 36°32' E 027°39'.

Length 106 m; draft 6.6 m.

Type: Cargo ship. MMSI: 667001350.

Date/timePositionNaut miles runAvg speedWind from/ knotsBaromVisibWave heightAir tempDewpointWater temp
2017-Nov-24 19:28N 36°32' E 027°39'4 8.7
2017-Nov-24 19:00N 36°35' E 027°36'2 1.5
2017-Nov-24 17:48N 36°36' E 027°34'3 6.4
2017-Nov-24 17:23N 36°36' E 027°31'410.1
2017-Nov-24 17:00N 36°37' E 027°26'19 8.4
2017-Nov-24 14:43N 36°55' E 027°20'211.1
2017-Nov-24 14:30N 36°56' E 027°17'2710.2
2017-Nov-24 11:49N 37°17' E 026°54'310.4
2017-Nov-24 11:30N 37°20' E 026°52'510.4
2017-Nov-24 11:00N 37°24' E 026°49'510.3
2017-Nov-24 10:30N 37°29' E 026°46'510.1
2017-Nov-24 10:00N 37°33' E 026°42'610.2
2017-Nov-24 09:26N 37°37' E 026°37'610.6
2017-Nov-24 08:54N 37°41' E 026°32'510.5
2017-Nov-24 08:25N 37°44' E 026°27'4 9.8
2017-Nov-24 08:00N 37°46' E 026°23'5 9.7
2017-Nov-24 07:28N 37°49' E 026°17'5 9.6
2017-Nov-24 06:58N 37°52' E 026°13'610.1
2017-Nov-24 06:23N 37°56' E 026°07'28 9.7
2017-Nov-24 03:32N 38°19' E 025°46'0 9.9
2017-Nov-24 03:30N 38°19' E 025°46'510.3
2017-Nov-24 02:59N 38°24' E 025°46'  
2017-Nov-19 20:25N 44°31' E 037°24'510.6
2017-Nov-19 20:00N 44°31' E 037°31'510.6
2017-Nov-19 19:30N 44°32' E 037°38'510.3
2017-Nov-19 19:00N 44°34' E 037°44'4 7.1
2017-Nov-19 18:30N 44°36' E 037°48'4 7.7
2017-Nov-19 18:00N 44°39' E 037°52'1 1.8
2017-Nov-19 17:25N 44°40' E 037°53'0 0.1
2017-Nov-19 17:00N 44°40' E 037°53'0 0.1
2017-Nov-19 16:29N 44°40' E 037°53'0 0.1
2017-Nov-19 15:59N 44°40' E 037°53'0 0.1
2017-Nov-19 15:28N 44°40' E 037°53'0 0.0
2017-Nov-19 14:59N 44°40' E 037°53'0 0.1
2017-Nov-19 14:28N 44°40' E 037°53'0 0.0
2017-Nov-19 13:58N 44°40' E 037°53'0 0.0
2017-Nov-19 13:26N 44°40' E 037°53'0 0.0
2017-Nov-19 12:59N 44°40' E 037°53'0 0.0
2017-Nov-19 12:28N 44°40' E 037°53'0 0.0
2017-Nov-19 11:58N 44°40' E 037°53'0 0.0
2017-Nov-19 11:26N 44°40' E 037°53'0 0.0
2017-Nov-19 10:58N 44°40' E 037°53'0 0.0
2017-Nov-19 10:30N 44°40' E 037°53'0 0.0
2017-Nov-19 09:58N 44°40' E 037°53'0 0.0
2017-Nov-19 09:25N 44°40' E 037°53'0 0.0
2017-Nov-19 09:00N 44°40' E 037°53'0 0.0
2017-Nov-19 08:29N 44°40' E 037°53'0 0.0
2017-Nov-19 07:58N 44°40' E 037°53'0 0.1
2017-Nov-19 07:28N 44°40' E 037°53'0 0.0
2017-Nov-19 06:59N 44°40' E 037°53'0 0.0
2017-Nov-19 06:30N 44°40' E 037°53'0 0.0
2017-Nov-19 05:57N 44°40' E 037°53'0 0.0
2017-Nov-19 05:30N 44°40' E 037°53'0 0.1
2017-Nov-19 04:34N 44°40' E 037°53'0 0.1
2017-Nov-19 04:28N 44°40' E 037°53'0 0.1
2017-Nov-19 03:54N 44°40' E 037°53'0 0.1
2017-Nov-19 03:25N 44°40' E 037°53'0 0.0
2017-Nov-19 02:53N 44°40' E 037°53'0 0.0
2017-Nov-19 02:27N 44°40' E 037°53'0 0.0
2017-Nov-19 01:55N 44°40' E 037°53'0 0.0
2017-Nov-19 01:29N 44°40' E 037°53'0 0.0
2017-Nov-19 00:58N 44°40' E 037°53'0 0.0
2017-Nov-19 00:29N 44°40' E 037°53'0 0.0
2017-Nov-18 23:54N 44°40' E 037°53'0 0.0
2017-Nov-18 23:30N 44°40' E 037°53'0 0.0
2017-Nov-18 23:00N 44°40' E 037°53'0 0.0
2017-Nov-18 22:29N 44°40' E 037°53'0 0.0
2017-Nov-18 22:00N 44°40' E 037°53'0 0.1
2017-Nov-18 21:29N 44°40' E 037°53'0 0.0
2017-Nov-18 20:59N 44°40' E 037°53'0 0.0
2017-Nov-18 20:28N 44°40' E 037°53'0 0.0
2017-Nov-18 20:00N 44°40' E 037°53'0 0.0
2017-Nov-18 19:30N 44°40' E 037°53'0 0.1
2017-Nov-18 18:59N 44°40' E 037°53'0 0.0
2017-Nov-18 18:29N 44°40' E 037°53'0 0.0
2017-Nov-18 17:58N 44°40' E 037°53'0 0.1
2017-Nov-18 17:28N 44°40' E 037°53'0 0.1
2017-Nov-18 16:57N 44°40' E 037°53'0 0.1
2017-Nov-18 16:30N 44°40' E 037°53'0 0.0
2017-Nov-18 16:00N 44°40' E 037°53'0 0.1
2017-Nov-18 15:30N 44°40' E 037°53'0 0.1
2017-Nov-18 14:53N 44°40' E 037°53'0 0.1
2017-Nov-18 14:28N 44°40' E 037°54'0 0.0
2017-Nov-18 13:58N 44°40' E 037°54'0 0.1
2017-Nov-18 13:29N 44°40' E 037°53'0 0.0
2017-Nov-18 12:57N 44°40' E 037°53'0 0.0
2017-Nov-18 12:26N 44°40' E 037°53'0 0.0
2017-Nov-18 11:53N 44°40' E 037°53'0 0.0
2017-Nov-18 11:29N 44°40' E 037°53'0 0.0
2017-Nov-18 10:59N 44°40' E 037°53'0 0.1
2017-Nov-18 10:30N 44°40' E 037°53'0 0.1
2017-Nov-18 09:53N 44°40' E 037°53'0 0.2
2017-Nov-18 09:25N 44°39' E 037°53'0 0.0
2017-Nov-18 09:01N 44°40' E 037°53'0 0.0
2017-Nov-18 08:30N 44°39' E 037°53'0 0.0
2017-Nov-18 08:00N 44°39' E 037°54'0 0.0
2017-Nov-18 07:24N 44°39' E 037°53'0 0.0
2017-Nov-18 06:58N 44°39' E 037°53'0 0.0
2017-Nov-18 06:29N 44°39' E 037°53'0 0.0
2017-Nov-18 06:00N 44°39' E 037°53'0 0.1
2017-Nov-18 05:30N 44°39' E 037°53'0 0.0
2017-Nov-18 04:59N 44°39' E 037°53'0 0.1
2017-Nov-18 04:29N 44°39' E 037°53'0 0.0
2017-Nov-18 03:59N 44°39' E 037°53'0 0.0
2017-Nov-18 03:30N 44°39' E 037°53'0 0.0
2017-Nov-18 02:59N 44°39' E 037°53'0 0.0
2017-Nov-18 02:28N 44°39' E 037°53'0 0.0
2017-Nov-18 02:00N 44°39' E 037°54'0 0.0
2017-Nov-18 01:23N 44°40' E 037°54'0 0.0
2017-Nov-18 01:00N 44°40' E 037°53'0 0.0
2017-Nov-18 00:28N 44°40' E 037°53'0 0.0
2017-Nov-17 23:59N 44°39' E 037°53'0 0.0
2017-Nov-17 23:28N 44°40' E 037°53'0 0.0
2017-Nov-17 22:58N 44°39' E 037°53'0 0.0
2017-Nov-17 22:30N 44°40' E 037°53'0 0.0
2017-Nov-17 21:54N 44°40' E 037°54'0 0.0
2017-Nov-17 21:29N 44°40' E 037°54'0 0.0
2017-Nov-17 21:00N 44°40' E 037°53'0 0.0
2017-Nov-17 20:29N 44°39' E 037°53'0 0.1
2017-Nov-17 19:56N 44°39' E 037°53'0 0.1
2017-Nov-17 19:29N 44°39' E 037°53'0 0.1
2017-Nov-17 19:00N 44°39' E 037°53'0 0.0
2017-Nov-17 18:29N 44°39' E 037°53'0 0.0
2017-Nov-17 17:54N 44°39' E 037°53'0 0.0
2017-Nov-17 17:28N 44°39' E 037°53'0 0.0
2017-Nov-17 17:00N 44°39' E 037°53'0 0.0
2017-Nov-17 16:28N 44°39' E 037°53'0 0.5
2017-Nov-17 16:00N 44°39' E 037°53'2 3.5
2017-Nov-17 15:30N 44°38' E 037°52'6 2.7
2017-Nov-17 13:13N 44°43' E 037°48'0 0.0
2017-Nov-17 13:00N 44°43' E 037°48'0 0.0
2017-Nov-17 12:28N 44°43' E 037°48'0 0.0
2017-Nov-17 11:59N 44°43' E 037°48'0 0.0
2017-Nov-17 11:29N 44°43' E 037°48'0 0.0
2017-Nov-17 10:56N 44°43' E 037°48'0 0.0
2017-Nov-17 10:29N 44°43' E 037°48'0 0.0
2017-Nov-17 10:00N 44°43' E 037°48'0 0.0
2017-Nov-17 09:24N 44°43' E 037°48'0 0.0
2017-Nov-17 08:58N 44°43' E 037°48'0 0.0
2017-Nov-17 08:28N 44°43' E 037°48'0 0.0
2017-Nov-17 08:00N 44°43' E 037°48'0 0.0
2017-Nov-17 07:30N 44°43' E 037°48'0 0.0
2017-Nov-17 07:00N 44°43' E 037°48'0 0.0
2017-Nov-17 06:27N 44°43' E 037°48'0 0.0
2017-Nov-16 21:56N 44°43' E 037°48'0 0.0
2017-Nov-16 21:29N 44°43' E 037°48'0 0.0
2017-Nov-16 21:00N 44°43' E 037°48'0 0.0
2017-Nov-16 20:28N 44°43' E 037°48'0 0.0
2017-Nov-16 19:46N 44°43' E 037°48'0 0.0
2017-Nov-16 19:30N 44°43' E 037°48'0 0.0
2017-Nov-16 18:58N 44°43' E 037°48'0 0.0
2017-Nov-16 18:28N 44°43' E 037°48'0 0.0
2017-Nov-16 18:00N 44°43' E 037°48'0 0.0
2017-Nov-16 17:28N 44°43' E 037°48'0 0.0
2017-Nov-16 17:00N 44°43' E 037°48'0 0.0
2017-Nov-16 16:29N 44°43' E 037°48'0 0.0
2017-Nov-16 15:59N 44°43' E 037°48'0 0.0
2017-Nov-16 15:29N 44°43' E 037°48'0 0.0
2017-Nov-16 14:58N 44°43' E 037°48'0 0.0
2017-Nov-16 14:29N 44°43' E 037°48'0 0.0
2017-Nov-16 13:54N 44°43' E 037°48'0 0.0
2017-Nov-16 13:29N 44°43' E 037°48'0 0.0
2017-Nov-16 03:44N 44°43' E 037°48'0 0.0
2017-Nov-16 03:29N 44°43' E 037°48'0 0.0
2017-Nov-16 02:58N 44°43' E 037°48'0 0.0
2017-Nov-16 02:29N 44°43' E 037°48'0 0.0
2017-Nov-16 01:58N 44°43' E 037°48'0 0.0
2017-Nov-16 01:29N 44°43' E 037°48'0 0.0
2017-Nov-16 00:59N 44°43' E 037°48'0 0.0
2017-Nov-16 00:30N 44°43' E 037°48'0 0.0
2017-Nov-15 23:58N 44°43' E 037°48'0 0.0
2017-Nov-15 23:24N 44°43' E 037°48'0 0.0
2017-Nov-15 23:00N 44°43' E 037°48'0 0.0
2017-Nov-15 22:27N 44°43' E 037°48'0 0.0
2017-Nov-15 21:59N 44°43' E 037°48'0 0.0
2017-Nov-15 21:30N 44°43' E 037°48'0 0.0
2017-Nov-15 21:00N 44°43' E 037°48'0 0.0
2017-Nov-15 20:28N 44°43' E 037°48'0 0.0
2017-Nov-15 20:00N 44°43' E 037°48'0 0.0
2017-Nov-15 19:30N 44°43' E 037°48'0 0.0
2017-Nov-15 19:00N 44°43' E 037°48'0 0.0
2017-Nov-15 18:29N 44°43' E 037°48'0 0.0
2017-Nov-15 17:54N 44°43' E 037°48'0 0.0
2017-Nov-15 17:30N 44°43' E 037°48'0 0.0
2017-Nov-15 17:00N 44°43' E 037°48'0 0.0
2017-Nov-15 16:28N 44°43' E 037°48'0 0.0
2017-Nov-15 15:58N 44°43' E 037°48'0 0.0
2017-Nov-15 15:29N 44°43' E 037°48'0 0.0
2017-Nov-15 15:00N 44°43' E 037°48'0 0.0
2017-Nov-15 13:57N 44°43' E 037°48'0 0.0
2017-Nov-15 13:28N 44°43' E 037°48'0 0.0
2017-Nov-15 13:00N 44°43' E 037°48'0 0.0
2017-Nov-15 12:29N 44°43' E 037°48'0 0.0
2017-Nov-15 11:55N 44°43' E 037°48'0 0.0
2017-Nov-15 11:29N 44°43' E 037°48'0 0.0
2017-Nov-15 11:00N 44°43' E 037°48'0 0.0
2017-Nov-15 10:26N 44°43' E 037°48'0 0.0
2017-Nov-15 10:00N 44°43' E 037°48'2 4.8
2017-Nov-15 09:31N 44°41' E 037°50'4 7.7
2017-Nov-15 09:00N 44°38' E 037°52'2 3.5
2017-Nov-15 08:30N 44°36' E 037°51'4 7.4
2017-Nov-15 08:00N 44°33' E 037°49'610.8
2017-Nov-15 07:29N 44°30' E 037°42'510.8
2017-Nov-15 07:00N 44°27' E 037°36'510.0
2017-Nov-15 06:30N 44°24' E 037°30'5 9.8
2017-Nov-15 06:00N 44°22' E 037°24'  

Dump ship's entire track history